Mc Indoe Falls, Vermont
Current Conditions -  °F | °C
As of 8:35 PM on Monday 24 Nov 2014 (Local Time) from KCDA Reporting Station
Broken Clouds Broken Clouds  
Wind Chill: 57°   Ceiling: 6000
Heat Index: 57°   Visibility: 10mi
Dew Point: 53°   Wind: 6mph
Humidity: 84%   Direction: 150°SSE
Pressure: 29.48"   Gusts: NA
Location:  44.2588°N, 72.0585°W
Report Text: KCDA 250135Z AUTO 15005KT 10SM SCT015 BKN060 BKN075 14/11 A2948 RMK AO2 T01410114
Loading
Personal Weather Stations






























Interactive Weather Map New forecast layout! Learn more

10-Day Weather Forecast

Advertisements
Track Severe Weather on mobile